createdAt,value
2022-08-12T00:00:43.701Z,38.32
2022-08-12T00:03:11.448Z,38.09
2022-08-12T00:06:04.122Z,38.29
2022-08-12T00:08:37.025Z,38.45
2022-08-12T00:11:12.292Z,38.46
2022-08-12T00:13:44.003Z,37.73
2022-08-12T00:16:12.211Z,38.11
2022-08-12T00:18:40.024Z,38.83
2022-08-12T00:21:08.224Z,38.68
2022-08-12T00:23:36.329Z,39.30
2022-08-12T00:26:23.822Z,39.84
2022-08-12T00:28:54.947Z,39.80
2022-08-12T00:31:22.643Z,39.62
2022-08-12T00:33:51.639Z,38.71
2022-08-12T00:36:35.083Z,38.14
2022-08-12T00:39:04.102Z,38.69
2022-08-12T00:41:32.991Z,39.12
2022-08-12T00:44:05.321Z,38.04
2022-08-12T00:46:44.570Z,38.68
2022-08-12T00:49:13.439Z,39.11
2022-08-12T00:51:42.988Z,38.90
2022-08-12T00:54:11.048Z,38.92
2022-08-12T00:56:39.655Z,40.23
2022-08-12T00:59:09.298Z,40.07
2022-08-12T01:02:01.130Z,40.05
2022-08-12T01:04:31.053Z,40.69
2022-08-12T01:07:01.744Z,40.62
2022-08-12T01:09:30.020Z,41.28
2022-08-12T01:11:57.727Z,42.17
2022-08-12T01:14:28.280Z,42.23
2022-08-12T01:17:00.064Z,41.70
2022-08-12T01:19:28.577Z,41.74
2022-08-12T01:22:19.194Z,41.67
2022-08-12T01:24:56.172Z,41.85
2022-08-12T01:27:26.505Z,41.81
2022-08-12T01:29:57.715Z,41.45
2022-08-12T01:32:28.721Z,41.61
2022-08-12T01:35:04.336Z,41.73
2022-08-12T01:37:35.717Z,41.88
2022-08-12T01:40:34.588Z,42.71
2022-08-12T01:43:05.340Z,42.74
2022-08-12T01:45:43.325Z,42.99
2022-08-12T01:48:24.808Z,43.36
2022-08-12T01:51:05.334Z,43.45
